Time;durP1;ratioP1;P1;durP2;ratioP2;P2;SDS_P1;SDS_P2;PMS_P1;PMS_P2;Temp;Humidity;BMP_temperature;BMP_pressure;BME280_temperature;BME280_humidity;BME280_pressure;Samples;Min_cycle;Max_cycle;Signal;HPM_P1;HPM_P2
2021/07/09 05:43:47;;;;;;;4.20;1.72;;;;;;;17.79;90.51;100148.42;2228250;79;32218;-65
2021/07/09 05:46:49;;;;;;;2.37;1.30;;;;;;;17.74;90.40;100149.31;2177851;81;27603;-66
2021/07/09 05:49:51;;;;;;;1.72;0.98;;;;;;;17.76;90.41;100146.84;2175251;81;29742;-63
2021/07/09 05:52:55;;;;;;;2.60;1.25;;;;;;;17.81;90.34;100147.80;2175332;81;31013;-63
2021/07/09 05:55:57;;;;;;;2.47;1.15;;;;;;;17.88;90.02;100148.16;2175177;81;33941;-62
2021/07/09 05:58:59;;;;;;;1.37;1.25;;;;;;;17.94;89.87;100199.15;2174809;81;29553;-65
2021/07/09 06:02:01;;;;;;;2.30;1.22;;;;;;;18.02;89.83;100198.07;2175202;81;27684;-65
2021/07/09 06:05:06;;;;;;;4.00;1.30;;;;;;;18.15;89.91;100169.42;2175340;81;28804;-65
2021/07/09 06:08:09;;;;;;;6.70;1.80;;;;;;;18.28;89.75;100160.28;2176465;81;31007;-64
2021/07/09 06:11:11;;;;;;;3.90;1.40;;;;;;;18.41;89.77;100105.83;2175137;81;33776;-65
2021/07/09 06:14:13;;;;;;;2.65;1.25;;;;;;;18.47;89.34;100000.36;2174949;81;29083;-65
2021/07/09 06:17:15;;;;;;;1.20;1.10;;;;;;;18.48;88.99;100004.80;2175419;81;27670;-64
2021/07/09 06:20:18;;;;;;;1.52;0.90;;;;;;;18.52;89.07;99991.84;2137779;83;29952;-64
2021/07/09 06:23:20;;;;;;;1.82;0.98;;;;;;;18.53;88.82;99938.80;2117903;84;31895;-65
2021/07/09 06:26:23;;;;;;;2.25;1.00;;;;;;;18.55;88.77;99945.94;2118142;83;33020;-65
2021/07/09 06:29:25;;;;;;;1.87;1.10;;;;;;;18.58;88.70;99961.95;2118052;83;29204;-64
2021/07/09 06:32:26;;;;;;;2.00;1.00;;;;;;;18.65;88.56;100037.24;2114330;83;27710;-68
2021/07/09 06:35:31;;;;;;;4.25;1.80;;;;;;;18.79;89.14;100111.14;2103719;84;28712;-68
2021/07/09 06:38:33;;;;;;;;;;;;;;;18.99;89.23;100184.08;2116628;84;31020;-68
2021/07/09 06:41:35;;;;;;;4.28;1.80;;;;;;;19.15;88.96;100195.83;2113863;84;33755;-66
2021/07/09 06:44:38;;;;;;;3.08;1.70;;;;;;;19.28;88.99;100202.38;2116555;83;29575;-65
2021/07/09 06:47:41;;;;;;;3.55;1.60;;;;;;;19.40;88.85;100177.34;2127387;83;27705;-66
2021/07/09 06:50:44;;;;;;;3.47;1.72;;;;;;;19.51;88.88;100158.25;2123455;83;28721;-66
2021/07/09 06:53:49;;;;;;;4.17;1.77;;;;;;;19.61;88.74;100149.25;2122335;83;31060;-66
2021/07/09 06:56:52;;;;;;;5.15;1.72;;;;;;;19.71;88.74;100100.72;2113784;83;34100;-66
2021/07/09 06:59:55;;;;;;;2.85;1.75;;;;;;;19.77;88.46;100053.59;2113466;83;29571;-66
2021/07/09 07:02:59;;;;;;;2.27;1.35;;;;;;;19.79;88.09;100065.16;2113299;84;37264;-66
2021/07/09 07:06:02;;;;;;;2.37;1.52;;;;;;;19.84;87.97;100096.86;2121123;83;28639;-66
2021/07/09 07:09:06;;;;;;;3.12;1.62;;;;;;;19.91;88.05;100092.63;2126917;83;31815;-66
2021/07/09 07:12:10;;;;;;;1.77;1.40;;;;;;;19.89;87.88;100103.62;2127113;83;33175;-66
2021/07/09 07:15:14;;;;;;;6.47;2.12;;;;;;;19.86;87.08;100084.84;2123405;83;28732;-66
2021/07/09 07:18:18;;;;;;;5.33;2.22;;;;;;;19.77;86.90;100148.22;2107280;84;28342;-64
2021/07/09 07:21:21;;;;;;;2.60;1.83;;;;;;;19.77;87.21;100184.07;2107149;84;28674;-64
2021/07/09 07:24:25;;;;;;;10.28;1.95;;;;;;;19.75;87.20;100174.68;2108659;83;31883;-64
2021/07/09 07:27:29;;;;;;;6.83;1.80;;;;;;;19.72;86.88;100078.46;2107283;84;32985;-65
2021/07/09 07:30:34;;;;;;;6.47;2.12;;;;;;;19.63;86.71;100111.93;2115461;83;29338;-65
2021/07/09 07:33:40;;;;;;;9.40;2.90;;;;;;;19.57;87.09;100137.30;2127140;83;27714;-65
2021/07/09 07:36:44;;;;;;;7.92;2.42;;;;;;;19.49;86.84;100205.55;2127069;83;28636;-65
2021/07/09 07:39:49;;;;;;;5.08;2.12;;;;;;;19.42;86.96;100176.23;2126987;83;31884;-64
2021/07/09 07:42:52;;;;;;;3.75;2.65;;;;;;;19.37;86.93;100219.23;2126210;83;32980;-66
2021/07/09 07:45:56;;;;;;;3.98;2.40;;;;;;;19.34;87.24;100120.35;2126662;83;28781;-64
2021/07/09 07:49:00;;;;;;;7.15;2.80;;;;;;;19.35;87.17;100182.35;2099800;84;27682;-65
2021/07/09 07:52:03;;;;;;;5.12;2.75;;;;;;;19.40;87.68;100171.91;2108672;84;28675;-71
2021/07/09 07:55:08;;;;;;;9.75;8.58;;;;;;;19.50;87.75;100132.55;2111145;84;31035;-67
2021/07/09 07:58:11;;;;;;;7.17;3.42;;;;;;;19.62;87.81;100195.81;2111270;83;33639;-64
2021/07/09 08:01:18;;;;;;;8.18;3.35;;;;;;;19.62;87.81;100195.81;2110515;83;28922;-64
2021/07/09 08:04:22;;;;;;;6.17;2.98;;;;;;;19.67;87.46;100167.73;2112128;83;27633;-64
2021/07/09 08:07:28;;;;;;;5.47;3.45;;;;;;;19.68;87.46;100180.33;2124607;83;28666;-64
2021/07/09 08:10:33;;;;;;;5.50;3.30;;;;;;;19.66;87.29;100195.91;2124873;83;30729;-65
2021/07/09 08:13:39;;;;;;;11.68;4.92;;;;;;;19.69;87.45;100167.95;2124875;83;33173;-64
2021/07/09 08:16:43;;;;;;;6.95;3.77;;;;;;;19.70;87.32;100145.20;2114287;83;28878;-65
2021/07/09 08:19:49;;;;;;;6.42;3.27;;;;;;;19.71;87.21;100125.66;2111451;83;27697;-65
2021/07/09 08:22:52;;;;;;;4.87;3.72;;;;;;;19.70;87.07;100210.92;2111229;83;28848;-65
2021/07/09 08:26:33;;;;;;;6.00;3.65;;;;;;;19.75;87.29;100195.06;2114665;82;31104;-65
2021/07/09 08:29:10;;;;;;;6.70;4.53;;;;;;;19.88;87.67;100148.63;2081824;79;27907;-65
2021/07/09 08:32:12;;;;;;;5.58;3.85;;;;;;;20.05;87.71;100181.06;2121385;82;28922;-64
2021/07/09 08:35:15;;;;;;;5.78;3.90;;;;;;;20.23;87.91;100160.84;2113221;82;27816;-64
2021/07/09 08:38:17;;;;;;;8.60;4.65;;;;;;;20.35;87.67;100180.61;2113121;84;29474;-65
2021/07/09 08:41:22;;;;;;;6.12;3.62;;;;;;;20.43;87.56;100194.86;2114805;82;31058;-64
2021/07/09 08:44:25;;;;;;;8.08;5.53;;;;;;;20.44;87.27;100236.89;2112982;84;33135;-65
2021/07/09 08:47:31;;;;;;;9.85;4.65;;;;;;;20.36;86.35;100247.60;2112842;84;29379;-65
2021/07/09 08:50:36;;;;;;;13.15;5.83;;;;;;;20.12;85.61;100289.66;2088071;82;27744;-65
2021/07/09 08:53:41;;;;;;;;;;;;;;;19.97;86.21;100232.58;2155973;82;28649;-66
2021/07/09 08:56:46;;;;;;;8.78;4.65;;;;;;;19.84;86.32;100236.39;2162429;82;31150;-65
2021/07/09 08:59:50;;;;;;;6.55;4.33;;;;;;;19.76;86.78;100243.51;2163119;82;33948;-66
2021/07/09 09:02:55;;;;;;;5.62;4.55;;;;;;;19.77;86.83;100220.77;2115862;82;28727;-65
2021/07/09 09:06:01;;;;;;;10.48;5.47;;;;;;;19.74;86.91;100173.83;2084895;84;27650;-66
2021/07/09 09:09:18;;;;;;;19.73;6.80;;;;;;;19.75;87.00;100226.32;2120526;82;28676;-66
2021/07/09 09:12:21;;;;;;;16.20;7.78;;;;;;;19.76;87.06;100290.56;2152743;82;31039;-68
2021/07/09 09:15:27;;;;;;;13.65;6.37;;;;;;;19.72;86.88;100268.24;2153002;82;32975;-64
2021/07/09 09:18:34;;;;;;;11.70;6.25;;;;;;;19.72;86.98;100247.86;2133549;82;28821;-66
2021/07/09 09:21:37;;;;;;;13.17;6.70;;;;;;;19.65;86.84;100247.18;2133586;82;27768;-82
2021/07/09 09:24:40;;;;;;;12.37;5.50;;;;;;;19.67;87.22;100228.38;2084960;84;29386;-66
2021/07/09 09:27:43;;;;;;;10.40;5.92;;;;;;;19.71;87.54;100201.28;2110895;82;31778;-67
2021/07/09 09:30:54;;;;;;;8.03;5.67;;;;;;;19.74;87.33;100222.76;2094829;84;33210;-66
2021/07/09 09:34:03;;;;;;;7.80;5.78;;;;;;;19.70;86.94;100300.12;2110291;84;29599;-65
2021/07/09 09:37:30;;;;;;;9.30;5.40;;;;;;;19.69;87.00;100267.15;2092083;84;27803;-67
2021/07/09 09:40:38;;;;;;;19.10;8.00;;;;;;;19.65;86.87;100351.81;2120188;82;29516;-67
2021/07/09 09:43:46;;;;;;;8.98;6.47;;;;;;;19.64;87.05;100244.95;2148479;82;31019;-67
2021/07/09 09:46:48;;;;;;;10.10;6.05;;;;;;;19.67;87.30;100276.45;2125240;82;33748;-67
2021/07/09 09:49:57;;;;;;;7.30;5.37;;;;;;;19.71;87.32;100315.92;2132425;83;28671;-67
2021/07/09 09:52:59;;;;;;;15.60;7.47;;;;;;;19.69;86.93;100297.56;2148560;82;27677;-68
2021/07/09 09:56:10;;;;;;;16.15;6.20;;;;;;;19.66;87.34;100295.11;2148565;82;28858;-68
2021/07/09 09:59:24;;;;;;;9.03;5.35;;;;;;;19.65;87.27;100311.05;2148618;82;31504;-68
2021/07/09 10:02:26;;;;;;;8.98;5.35;;;;;;;19.57;87.05;100313.92;2148377;82;33113;-67
2021/07/09 10:05:28;;;;;;;38.70;6.70;;;;;;;19.46;86.94;100307.70;2148187;82;29494;-67
2021/07/09 10:08:31;;;;;;;14.90;6.10;;;;;;;19.38;87.36;100313.81;2148457;82;27717;-67
2021/07/09 10:11:33;;;;;;;8.83;5.50;;;;;;;19.27;87.36;100306.10;2148358;82;29484;-68
2021/07/09 10:14:39;;;;;;;8.80;5.67;;;;;;;19.24;87.85;100279.20;2148433;82;31006;-66
2021/07/09 10:17:41;;;;;;;8.73;5.05;;;;;;;19.30;88.08;100257.94;2148323;82;32960;-68
2021/07/09 10:20:45;;;;;;;8.40;5.65;;;;;;;19.33;87.87;100272.11;2148331;82;29746;-67
2021/07/09 10:23:48;;;;;;;6.12;4.87;;;;;;;19.36;87.76;100254.19;2148550;82;27617;-67
2021/07/09 10:26:53;;;;;;;10.65;5.70;;;;;;;19.47;88.17;100242.86;2148345;82;28682;-66
2021/07/09 10:30:05;;;;;;;7.78;5.67;;;;;;;19.65;88.56;100242.59;2148279;82;31004;-67
2021/07/09 10:33:32;;;;;;;10.43;5.58;;;;;;;19.88;88.69;100251.44;2132321;83;33107;-68
2021/07/09 10:36:34;;;;;;;7.47;4.42;;;;;;;20.17;88.70;100248.44;2147501;82;28764;-68
2021/07/09 10:39:48;;;;;;;7.00;5.78;;;;;;;20.40;88.35;100235.95;2125311;82;27675;-68
2021/07/09 10:43:06;;;;;;;6.43;4.27;;;;;;;20.56;88.08;100238.09;2148463;82;28707;-68
2021/07/09 10:46:27;;;;;;;8.68;4.85;;;;;;;20.60;87.73;100243.11;2106147;82;28082;-67
2021/07/09 10:50:03;;;;;;;7.20;4.60;;;;;;;20.62;87.48;100242.47;2026964;87;29847;-66
2021/07/09 10:53:16;;;;;;;5.80;4.37;;;;;;;20.60;87.15;100255.35;2086529;84;27715;-66
2021/07/09 10:56:29;;;;;;;9.28;5.72;;;;;;;20.48;86.74;100227.92;2095351;85;28065;-68
2021/07/09 11:00:11;;;;;;;9.08;4.30;;;;;;;20.48;86.61;100208.39;2095025;84;28659;-65
2021/07/09 11:03:57;;;;;;;7.62;4.58;;;;;;;20.53;87.14;100250.14;1993276;89;27848;-80
2021/07/09 11:06:43;;;;;;;6.17;4.80;;;;;;;20.61;87.09;100256.23;1931467;89;29718;-78
2021/07/09 11:09:47;;;;;;;7.22;4.87;;;;;;;20.78;87.50;100245.14;1975132;90;29072;-73
2021/07/09 11:12:51;;;;;;;8.70;5.20;;;;;;;21.16;88.35;100228.40;1975425;89;27990;-77
2021/07/09 11:15:59;;;;;;;8.98;5.22;;;;;;;21.48;87.62;100178.09;1975959;90;28645;-60
2021/07/09 11:19:12;;;;;;;8.58;5.75;;;;;;;21.89;87.97;100170.10;1975303;90;32440;-60
2021/07/09 11:22:15;;;;;;;8.50;5.08;;;;;;;22.31;88.27;100199.03;1975249;90;34160;-60
2021/07/09 11:25:21;;;;;;;6.65;4.95;;;;;;;22.59;87.06;100198.09;1954931;90;30004;-60
2021/07/09 11:28:29;;;;;;;7.20;4.40;;;;;;;22.86;87.11;100196.28;1975739;90;27804;-60
2021/07/09 11:31:36;;;;;;;7.37;4.87;;;;;;;23.04;86.50;100190.27;1976971;88;28509;-60
2021/07/09 11:34:47;;;;;;;9.78;7.28;;;;;;;23.22;86.50;100192.13;1977555;90;31080;-60
2021/07/09 11:37:49;;;;;;;4.42;3.98;;;;;;;23.39;86.37;100196.31;1977565;90;33127;-60
2021/07/09 11:40:51;;;;;;;7.55;4.70;;;;;;;23.58;85.71;100189.73;2055685;85;29877;-59
2021/07/09 11:43:54;;;;;;;5.58;4.10;;;;;;;23.79;85.65;100194.77;2044438;87;27706;-60
2021/07/09 11:47:04;;;;;;;6.17;4.60;;;;;;;24.00;85.86;100190.77;2009431;88;28350;-60
2021/07/09 11:50:20;;;;;;;6.15;4.55;;;;;;;24.12;85.38;100203.98;2003959;88;31958;-60
2021/07/09 11:53:22;;;;;;;7.12;4.78;;;;;;;24.10;83.54;100216.98;2076253;85;33010;-60
2021/07/09 11:56:24;;;;;;;4.33;3.72;;;;;;;23.99;83.75;100221.40;2043711;87;29934;-60
2021/07/09 11:59:27;;;;;;;5.10;4.03;;;;;;;24.01;83.83;100221.22;2009223;88;27757;-60
2021/07/09 12:02:30;;;;;;;6.10;4.28;;;;;;;24.05;83.57;100221.24;2075932;85;28702;-61
2021/07/09 12:05:36;;;;;;;9.73;4.83;;;;;;;23.87;82.13;100214.46;2076070;85;31768;-60
2021/07/09 12:08:36;;;;;;;5.30;4.53;;;;;;;23.74;82.46;100217.69;2076055;85;33815;-60
2021/07/09 12:11:38;;;;;;;10.75;4.58;;;;;;;23.76;82.97;100219.22;2043734;86;30016;-60
2021/07/09 12:15:03;;;;;;;8.03;4.62;;;;;;;23.77;82.71;100210.48;2009525;88;27713;-63
2021/07/09 12:18:11;;;;;;;6.75;4.50;;;;;;;23.87;83.11;100193.94;2076139;85;28781;-59
2021/07/09 12:21:13;;;;;;;7.22;4.80;;;;;;;24.06;83.14;100192.33;2075792;85;31912;-60
2021/07/09 12:24:16;;;;;;;7.40;4.65;;;;;;;24.33;83.70;100194.42;2076112;85;33853;-60
2021/07/09 12:27:20;;;;;;;9.40;4.30;;;;;;;24.51;83.36;100181.09;2027658;85;29071;-59
2021/07/09 12:30:28;;;;;;;5.67;5.05;;;;;;;24.70;83.45;100165.72;2046592;86;27724;-59
2021/07/09 12:33:36;;;;;;;7.22;4.62;;;;;;;24.88;82.97;100147.73;2088627;85;29538;-60
2021/07/09 12:36:39;;;;;;;5.97;5.30;;;;;;;24.93;81.71;100144.47;2088718;85;31918;-59
2021/07/09 12:39:44;;;;;;;8.43;4.80;;;;;;;25.03;80.84;100127.83;2050367;86;33011;-59
2021/07/09 12:42:49;;;;;;;8.38;5.53;;;;;;;25.04;81.36;100125.44;2088524;85;29940;-59
2021/07/09 12:46:04;;;;;;;7.67;4.37;;;;;;;25.05;81.58;100111.20;2050661;86;27657;-60
2021/07/09 12:49:10;;;;;;;4.62;4.22;;;;;;;24.98;81.31;100106.44;2088774;85;29396;-69
2021/07/09 12:52:16;;;;;;;9.80;4.78;;;;;;;24.85;81.26;100088.30;2050262;86;32102;-65
2021/07/09 12:55:43;;;;;;;7.30;4.35;;;;;;;24.77;81.07;100076.00;2088727;85;32982;-67
2021/07/09 12:58:49;;;;;;;10.55;5.37;;;;;;;24.70;81.16;100064.36;2084580;85;29672;-69
2021/07/09 13:02:09;;;;;;;7.97;4.87;;;;;;;24.61;80.93;100068.13;2088874;85;27639;-67
2021/07/09 13:05:18;;;;;;;8.20;4.80;;;;;;;24.54;81.04;100084.89;2050583;86;28834;-60
2021/07/09 13:08:26;;;;;;;8.73;5.25;;;;;;;24.45;81.18;100099.11;2088752;85;31050;-60
2021/07/09 13:11:35;;;;;;;6.95;5.33;;;;;;;24.38;80.75;100109.05;2050546;86;32980;-59
2021/07/09 13:14:58;;;;;;;7.00;5.15;;;;;;;24.33;81.08;100125.97;2088346;85;29118;-60
2021/07/09 13:18:07;;;;;;;7.70;4.97;;;;;;;24.33;81.02;100145.66;2050673;86;27689;-60
2021/07/09 13:21:14;;;;;;;7.90;5.30;;;;;;;24.21;80.44;100141.91;2088646;85;28657;-60
2021/07/09 13:24:17;;;;;;;7.47;4.90;;;;;;;24.21;80.55;100136.92;2050398;86;30881;-60
2021/07/09 13:27:24;;;;;;;8.10;5.43;;;;;;;24.20;80.74;100140.19;2088617;85;33114;-59
2021/07/09 13:30:33;;;;;;;6.53;5.10;;;;;;;24.23;80.23;100152.17;2048570;86;29047;-59
2021/07/09 13:33:37;;;;;;;9.75;5.62;;;;;;;24.29;80.25;100141.05;2009756;88;27721;-60
2021/07/09 13:36:39;;;;;;;8.83;5.47;;;;;;;24.36;80.40;100141.22;2076209;85;29652;-60
2021/07/09 13:39:41;;;;;;;8.58;5.25;;;;;;;24.46;80.14;100136.95;2076155;85;31836;-59
2021/07/09 13:42:44;;;;;;;8.80;5.75;;;;;;;24.53;79.76;100133.85;2043676;87;33913;-59
2021/07/09 13:45:47;;;;;;;6.78;5.25;;;;;;;24.58;80.02;100134.20;2009139;88;29868;-60
2021/07/09 13:48:50;;;;;;;5.92;5.12;;;;;;;24.62;79.81;100129.22;2075981;85;27748;-59
2021/07/09 13:51:52;;;;;;;8.33;5.00;;;;;;;24.66;79.76;100126.48;2043735;87;29961;-62
2021/07/09 13:54:54;;;;;;;7.42;5.37;;;;;;;24.66;79.24;100142.92;2009115;88;31334;-59
2021/07/09 13:57:56;;;;;;;6.78;5.03;;;;;;;24.64;79.14;100153.20;2075843;85;33436;-60
2021/07/09 14:00:59;;;;;;;6.92;5.53;;;;;;;24.65;79.44;100159.89;2043726;87;29724;-60
2021/07/09 14:04:01;;;;;;;6.95;5.12;;;;;;;24.67;79.15;100161.91;2009255;88;27690;-60
2021/07/09 14:07:06;;;;;;;7.28;5.53;;;;;;;24.66;78.58;100156.09;2076062;85;29622;-60
2021/07/09 14:10:09;;;;;;;7.72;5.28;;;;;;;24.65;79.06;100159.89;2076322;85;31761;-59
2021/07/09 14:13:12;;;;;;;7.20;5.57;;;;;;;24.69;79.23;100161.77;2044372;87;32994;-59
2021/07/09 14:16:14;;;;;;;6.05;5.10;;;;;;;24.72;78.84;100164.20;2076045;85;30176;-59
2021/07/09 14:19:16;;;;;;;10.60;5.60;;;;;;;24.69;78.41;100173.56;2044064;87;27615;-59
2021/07/09 14:22:19;;;;;;;8.38;5.47;;;;;;;24.63;78.17;100189.33;2009558;88;29481;-59
2021/07/09 14:25:21;;;;;;;7.90;5.35;;;;;;;24.54;78.29;100195.32;2076286;85;31085;-60
2021/07/09 14:28:24;;;;;;;8.55;5.47;;;;;;;24.48;78.16;100191.88;2043814;87;34176;-59
2021/07/09 14:31:26;;;;;;;7.78;5.70;;;;;;;24.50;78.35;100184.36;2005273;87;30402;-59
2021/07/09 14:34:28;;;;;;;9.58;5.50;;;;;;;24.66;78.58;100167.05;2058343;86;27695;-60
2021/07/09 14:37:30;;;;;;;6.72;5.20;;;;;;;24.88;78.15;100162.81;2036144;87;28655;-59
2021/07/09 14:40:33;;;;;;;11.80;6.12;;;;;;;25.02;76.07;100151.63;2035645;87;30272;-59
2021/07/09 14:43:35;;;;;;;6.50;4.80;;;;;;;25.11;76.69;100135.17;2035304;87;33983;-59
2021/07/09 14:46:38;;;;;;;7.65;5.53;;;;;;;25.24;75.49;100131.86;2058527;86;29419;-63
2021/07/09 14:49:40;;;;;;;8.15;5.30;;;;;;;25.37;76.41;100132.68;2076492;85;27635;-59
2021/07/09 14:52:42;;;;;;;9.58;5.25;;;;;;;25.57;76.31;100131.76;2076460;85;28998;-59
2021/07/09 14:55:46;;;;;;;6.42;5.83;;;;;;;25.65;74.56;100127.62;2036272;87;31790;-60
2021/07/09 14:58:48;;;;;;;8.90;5.58;;;;;;;25.73;75.37;100126.19;1993739;88;32977;-60
2021/07/09 15:01:50;;;;;;;9.35;5.83;;;;;;;25.77;74.61;100126.70;2017841;88;30127;-59
2021/07/09 15:04:53;;;;;;;9.08;4.87;;;;;;;25.74;74.61;100117.45;2017628;88;27724;-60
2021/07/09 15:07:55;;;;;;;4.90;4.53;;;;;;;25.73;74.00;100123.45;2036283;87;29062;-59
2021/07/09 15:10:57;;;;;;;6.40;5.10;;;;;;;25.66;72.97;100121.59;2036093;87;31707;-59
2021/07/09 15:13:59;;;;;;;6.78;4.85;;;;;;;25.56;73.89;100107.60;2035430;87;33348;-59
2021/07/09 15:17:02;;;;;;;9.75;5.10;;;;;;;25.49;72.89;100098.36;2017340;88;29824;-59
2021/07/09 15:20:08;;;;;;;7.97;5.08;;;;;;;25.41;72.79;100086.05;2058536;86;27711;-61
2021/07/09 15:23:11;;;;;;;8.20;4.78;;;;;;;25.31;73.17;100078.91;2058489;86;29551;-60
2021/07/09 15:26:14;;;;;;;6.67;5.97;;;;;;;25.25;73.17;100076.86;2058479;86;31040;-60
2021/07/09 15:29:16;;;;;;;7.12;4.87;;;;;;;25.20;73.24;100064.20;2075822;85;33927;-59
2021/07/09 15:32:19;;;;;;;10.50;4.60;;;;;;;25.11;72.54;100047.45;2077922;85;29035;-59
2021/07/09 15:35:20;;;;;;;7.55;4.50;;;;;;;25.02;73.13;100044.73;2043942;87;27713;-58
2021/07/09 15:38:23;;;;;;;5.72;4.37;;;;;;;25.00;72.98;100042.69;2078929;85;28779;-59
2021/07/09 15:41:25;;;;;;;7.22;4.78;;;;;;;24.92;72.32;100042.73;2078866;85;31427;-59
2021/07/09 15:44:29;;;;;;;10.00;4.90;;;;;;;24.87;72.77;100044.64;2043670;87;33918;-59
2021/07/09 15:47:32;;;;;;;5.35;4.83;;;;;;;24.83;72.81;100049.25;2079175;85;29826;-72
2021/07/09 15:50:53;;;;;;;5.85;4.37;;;;;;;24.79;72.71;100051.49;2079224;85;27708;-59
2021/07/09 15:53:56;;;;;;;8.13;5.25;;;;;;;24.78;72.55;100055.27;2043845;87;28807;-60
2021/07/09 15:57:00;;;;;;;5.50;4.80;;;;;;;24.72;72.41;100055.45;2079297;85;31856;-63
2021/07/09 16:00:06;;;;;;;5.93;5.33;;;;;;;24.70;72.42;100060.25;2079534;85;33136;-59
2021/07/09 16:03:12;;;;;;;5.42;4.37;;;;;;;24.66;72.20;100056.64;2079031;85;30205;-59
2021/07/09 16:06:12;;;;;;;7.22;4.97;;;;;;;24.58;71.95;100060.25;2078664;85;33270;-60
2021/07/09 16:09:14;;;;;;;5.00;4.58;;;;;;;24.54;72.25;100066.59;2044030;87;29890;-59
2021/07/09 16:12:16;;;;;;;5.03;4.15;;;;;;;24.50;72.23;100062.98;2079287;85;31054;-59
2021/07/09 16:15:21;;;;;;;6.60;4.15;;;;;;;24.47;72.10;100059.25;2078838;85;33828;-59
2021/07/09 16:18:25;;;;;;;6.08;4.35;;;;;;;24.42;71.94;100065.22;2078923;85;30300;-59
2021/07/09 16:21:27;;;;;;;6.25;4.65;;;;;;;24.33;71.90;100055.31;2044125;87;27680;-70
2021/07/09 16:24:29;;;;;;;9.05;4.45;;;;;;;24.26;71.85;100051.89;2078963;85;30083;-59
2021/07/09 16:27:31;;;;;;;4.70;4.40;;;;;;;24.24;72.15;100054.47;2079072;85;31108;-59
2021/07/09 16:30:33;;;;;;;6.80;4.83;;;;;;;24.20;72.04;100059.44;2043633;87;33849;-59
2021/07/09 16:33:36;;;;;;;5.12;4.25;;;;;;;24.18;72.14;100062.86;2088801;85;30193;-60
2021/07/09 16:36:38;;;;;;;5.78;4.80;;;;;;;24.18;72.15;100071.56;2089576;85;28274;-59
2021/07/09 16:39:42;;;;;;;5.03;4.20;;;;;;;24.18;72.15;100068.83;2089250;85;29915;-59
2021/07/09 16:42:50;;;;;;;7.00;3.83;;;;;;;24.18;72.11;100075.17;2080977;85;31052;-60
2021/07/09 16:45:51;;;;;;;2.42;2.30;;;;;;;24.17;71.56;100079.43;2080741;85;33743;-60
2021/07/09 16:48:53;;;;;;;2.58;2.05;;;;;;;24.14;70.65;100079.27;2080709;85;29029;-59
2021/07/09 16:51:55;;;;;;;2.50;2.30;;;;;;;24.19;69.84;100091.06;2080771;85;27723;-66
2021/07/09 16:54:57;;;;;;;2.75;2.00;;;;;;;24.19;70.32;100088.33;2080322;85;30801;-70
2021/07/09 16:57:59;;;;;;;4.47;3.95;;;;;;;24.18;70.26;100092.96;2080451;85;32089;-60
2021/07/09 17:01:01;;;;;;;2.02;1.70;;;;;;;24.14;69.50;100086.11;2080302;85;34212;-60
2021/07/09 17:04:04;;;;;;;1.67;1.40;;;;;;;24.06;68.73;100084.75;2080545;85;29847;-59
2021/07/09 17:07:06;;;;;;;2.17;1.52;;;;;;;23.97;68.87;100083.36;2080483;85;27707;-59
2021/07/09 17:10:10;;;;;;;3.22;1.40;;;;;;;23.89;68.61;100083.83;2080675;85;28647;-73
2021/07/09 17:13:12;;;;;;;1.33;1.23;;;;;;;23.79;68.58;100086.72;2080850;85;31121;-60
2021/07/09 17:16:14;;;;;;;2.17;2.08;;;;;;;23.71;68.05;100092.19;2056971;85;33373;-73
2021/07/09 17:19:16;;;;;;;1.85;1.65;;;;;;;23.62;68.75;100082.58;2080589;85;29945;-73
2021/07/09 17:22:18;;;;;;;4.03;1.82;;;;;;;23.58;68.41;100077.61;2081020;85;27722;-72
2021/07/09 17:25:21;;;;;;;4.65;1.00;;;;;;;23.51;68.39;100079.63;2057339;85;29479;-71
2021/07/09 17:28:22;;;;;;;38.88;34.92;;;;;;;23.46;68.44;100078.42;2080978;85;31954;-73
2021/07/09 17:31:24;;;;;;;3.30;2.12;;;;;;;23.41;67.79;100075.36;2080082;85;33051;-61
2021/07/09 17:34:26;;;;;;;1.57;1.30;;;;;;;23.32;67.87;100075.31;2043899;87;29279;-59
2021/07/09 17:37:30;;;;;;;2.10;1.30;;;;;;;23.24;67.51;100081.25;2009378;88;27701;-59
2021/07/09 17:40:32;;;;;;;2.25;1.60;;;;;;;23.16;67.55;100098.44;2076086;85;29499;-74
2021/07/09 17:43:35;;;;;;;1.47;1.10;;;;;;;23.06;67.07;100095.34;2043637;87;31123;-59
2021/07/09 17:46:38;;;;;;;3.50;1.37;;;;;;;22.99;67.28;100098.88;2009347;88;33667;-60
2021/07/09 17:49:40;;;;;;;1.22;1.10;;;;;;;22.94;67.26;100103.97;2076226;85;30339;-62
2021/07/09 17:52:42;;;;;;;6.00;5.03;;;;;;;22.88;67.54;100109.05;2076130;85;27731;-59
2021/07/09 17:55:44;;;;;;;8.05;3.67;;;;;;;22.84;67.13;100117.73;2043667;87;30075;-58
2021/07/09 17:58:46;;;;;;;4.53;1.10;;;;;;;22.79;66.97;100114.62;2009150;88;32265;-58
2021/07/09 18:01:49;;;;;;;2.12;1.00;;;;;;;22.72;67.23;100115.28;2075782;85;33862;-58
2021/07/09 18:04:51;;;;;;;1.45;1.17;;;;;;;22.69;67.01;100118.81;2043587;87;30367;-58
2021/07/09 18:07:55;;;;;;;2.17;1.27;;;;;;;22.63;67.20;100120.31;2075970;85;27703;-74
2021/07/09 18:10:56;;;;;;;2.08;1.75;;;;;;;22.56;67.34;100121.98;2076106;85;29672;-66
2021/07/09 18:13:58;;;;;;;1.27;1.05;;;;;;;22.52;67.56;100117.84;2043938;87;31458;-64
2021/07/09 18:17:00;;;;;;;4.03;2.20;;;;;;;22.45;67.77;100111.65;2009381;88;33138;-67
2021/07/09 18:20:06;;;;;;;3.98;2.00;;;;;;;22.37;67.75;100106.11;2076111;85;29393;-65
2021/07/09 18:23:11;;;;;;;1.62;1.40;;;;;;;22.29;67.67;100104.66;2076140;85;27658;-65
2021/07/09 18:26:13;;;;;;;1.60;1.20;;;;;;;22.19;67.91;100100.65;2043573;87;29926;-65
2021/07/09 18:29:17;;;;;;;3.65;1.37;;;;;;;22.13;68.20;100096.68;2008990;88;31579;-65
2021/07/09 18:32:19;;;;;;;1.98;1.50;;;;;;;22.06;68.10;100105.16;2077032;85;33000;-69
2021/07/09 18:35:22;;;;;;;4.25;2.65;;;;;;;22.00;68.02;100105.28;2050090;86;29171;-72
2021/07/09 18:38:24;;;;;;;3.87;1.80;;;;;;;21.93;68.40;100108.27;2052567;86;27720;-68
2021/07/09 18:41:26;;;;;;;4.60;2.62;;;;;;;21.86;68.37;100112.61;2079645;85;28661;-61
2021/07/09 18:44:29;;;;;;;4.30;1.92;;;;;;;21.80;68.55;100120.91;2050420;86;31037;-63
2021/07/09 18:47:31;;;;;;;4.62;1.90;;;;;;;21.72;68.34;100115.37;2052410;86;33581;-70
2021/07/09 18:50:33;;;;;;;4.65;2.15;;;;;;;21.66;68.43;100121.44;2079668;85;30294;-62
2021/07/09 18:53:36;;;;;;;4.15;1.87;;;;;;;21.59;68.60;100125.24;2089091;85;27644;-59
2021/07/09 18:56:38;;;;;;;2.70;2.33;;;;;;;21.53;68.79;100129.93;2089310;85;28725;-60
2021/07/09 18:59:40;;;;;;;6.80;2.02;;;;;;;21.46;68.81;100136.50;2050304;86;31907;-73
2021/07/09 19:02:45;;;;;;;4.47;1.80;;;;;;;21.41;68.92;100147.02;2052579;86;33370;-63
2021/07/09 19:05:50;;;;;;;5.05;2.02;;;;;;;21.36;69.58;100147.44;2100148;82;29085;-59
2021/07/09 19:08:53;;;;;;;3.47;2.00;;;;;;;21.30;69.67;100157.59;2124916;82;28352;-62
2021/07/09 19:11:58;;;;;;;3.87;2.17;;;;;;;21.20;69.67;100158.13;2130586;82;29540;-59
2021/07/09 19:15:01;;;;;;;2.72;1.37;;;;;;;21.12;69.78;100167.55;2129615;82;31095;-61
2021/07/09 19:18:03;;;;;;;2.87;1.30;;;;;;;21.04;69.93;100176.47;2128120;82;33018;-57
2021/07/09 19:21:06;;;;;;;2.85;1.60;;;;;;;20.97;69.84;100180.28;2130904;82;29630;-60
2021/07/09 19:24:09;;;;;;;5.20;3.17;;;;;;;20.91;69.81;100180.86;2136074;82;27623;-58
2021/07/09 19:27:11;;;;;;;16.30;14.30;;;;;;;20.85;70.10;100179.59;2132695;82;28782;-57
2021/07/09 19:30:17;;;;;;;14.07;10.03;;;;;;;20.79;70.04;100181.52;2133265;82;32214;-59
2021/07/09 19:33:23;;;;;;;3.72;1.70;;;;;;;20.73;70.24;100188.38;2119096;82;32968;-57
2021/07/09 19:36:25;;;;;;;4.67;1.57;;;;;;;20.69;70.19;100184.73;2116866;82;29089;-58
2021/07/09 19:39:30;;;;;;;5.08;1.57;;;;;;;20.64;70.12;100181.09;2112377;82;27713;-60
2021/07/09 19:42:34;;;;;;;2.60;1.57;;;;;;;20.59;70.21;100185.63;2108653;82;29295;-58
2021/07/09 19:45:38;;;;;;;3.87;1.80;;;;;;;20.55;70.32;100178.73;2112355;83;31163;-60
2021/07/09 19:48:40;;;;;;;3.42;2.02;;;;;;;20.52;70.34;100191.78;2112339;82;33230;-60
2021/07/09 19:51:43;;;;;;;6.58;2.05;;;;;;;20.46;70.44;100191.34;2112350;83;28670;-58
2021/07/09 19:54:45;;;;;;;5.60;2.70;;;;;;;20.44;70.98;100199.27;2111048;83;27685;-58
2021/07/09 19:57:46;;;;;;;5.50;3.22;;;;;;;20.38;71.13;100204.79;2112175;83;28966;-59
2021/07/09 20:01:05;;;;;;;3.50;1.40;;;;;;;20.35;71.05;100211.91;2112228;83;32378;-58